Time;durP1;ratioP1;P1;durP2;ratioP2;P2;SDS_P1;SDS_P2;PMS_P1;PMS_P2;Temp;Humidity;BMP_temperature;BMP_pressure;BME280_temperature;BME280_humidity;BME280_pressure;Samples;Min_cycle;Max_cycle;Signal;HPM_P1;HPM_P2
2022/10/31 00:00:14;;;;;;;13.03;10.57;;;;;;;-142.65;90.65;50170.78;5115807;28;20185;-70
2022/10/31 00:02:41;;;;;;;17.37;13.23;;;;;;;-142.65;90.54;50170.78;5116097;28;20300;-70
2022/10/31 00:05:07;;;;;;;24.60;11.60;;;;;;;;;;5115852;28;20325;-70
2022/10/31 00:07:34;;;;;;;12.80;11.17;;;;;;;-142.65;90.68;50162.81;5116341;28;20189;-70
2022/10/31 00:10:00;;;;;;;15.90;11.17;;;;;;;-142.65;90.59;50168.78;5115994;28;20209;-70
2022/10/31 00:12:27;;;;;;;11.97;10.87;;;;;;;-142.65;90.73;50178.75;5115643;28;20205;-70
2022/10/31 00:14:53;;;;;;;26.50;12.70;;;;;;;-142.65;90.45;50168.78;5115747;28;20231;-70
2022/10/31 00:17:19;;;;;;;11.93;10.70;;;;;;;-142.65;90.87;50170.78;5115602;28;20188;-70
2022/10/31 00:19:46;;;;;;;20.73;11.50;;;;;;;-142.65;90.83;50172.78;5116382;28;20539;-70
2022/10/31 00:22:12;;;;;;;16.47;11.57;;;;;;;-142.65;90.97;50168.78;5115735;28;20578;-70
2022/10/31 00:24:38;;;;;;;14.07;10.30;;;;;;;-142.65;90.79;50178.75;5115468;28;20185;-70
2022/10/31 00:27:05;;;;;;;14.73;11.53;;;;;;;-142.65;90.79;50172.78;5115944;28;20196;-70
2022/10/31 00:29:31;;;;;;;18.60;11.10;;;;;;;;;;5115824;28;20201;-70
2022/10/31 00:31:58;;;;;;;21.87;10.77;;;;;;;-142.65;90.50;50174.75;5115807;28;20208;-70
2022/10/31 00:34:24;;;;;;;11.67;10.47;;;;;;;-142.65;90.54;50174.75;5097227;28;20197;-70
2022/10/31 00:36:50;;;;;;;11.07;10.13;;;;;;;-142.65;90.28;50170.78;5096932;28;20189;-70
2022/10/31 00:39:17;;;;;;;27.43;10.67;;;;;;;-142.65;90.52;50170.78;5096924;28;20187;-70
2022/10/31 00:41:43;;;;;;;16.00;11.57;;;;;;;-142.65;90.49;50170.78;5115329;28;20201;-70
2022/10/31 00:44:11;;;;;;;14.40;11.67;;;;;;;-142.65;90.70;50172.78;5115328;28;20189;-70
2022/10/31 00:46:37;;;;;;;14.37;11.10;;;;;;;-142.65;90.88;50176.75;5115324;28;20550;-70
2022/10/31 00:49:03;;;;;;;13.27;10.83;;;;;;;-142.65;90.78;50168.78;5114870;28;20205;-70
2022/10/31 00:51:30;;;;;;;14.27;11.33;;;;;;;-142.65;90.52;50178.75;5096577;28;20296;-70
2022/10/31 00:53:57;;;;;;;15.20;10.50;;;;;;;-142.65;90.46;50174.75;5096613;28;20200;-70
2022/10/31 00:56:23;;;;;;;16.67;11.03;;;;;;;;;;5114822;28;20196;-70
2022/10/31 00:58:50;;;;;;;12.47;9.90;;;;;;;-142.65;90.81;50174.75;5096813;28;20192;-70
2022/10/31 01:01:16;;;;;;;12.00;10.27;;;;;;;-142.65;90.73;50172.78;5114661;28;20211;-70
2022/10/31 01:03:43;;;;;;;15.97;11.17;;;;;;;-142.65;90.76;50174.75;5096350;28;20193;-70
2022/10/31 01:06:12;;;;;;;15.00;10.73;;;;;;;-142.65;91.01;50168.78;5096417;28;20726;-70
2022/10/31 01:08:40;;;;;;;13.77;9.77;;;;;;;-142.65;91.11;50170.78;5114776;28;20610;-70
2022/10/31 01:11:12;;;;;;;16.03;10.77;;;;;;;-142.65;91.35;50176.75;5096250;28;20216;-70
2022/10/31 01:13:39;;;;;;;26.60;12.33;;;;;;;;;;5113909;28;20188;-70
2022/10/31 01:16:07;;;;;;;14.27;11.83;;;;;;;-142.65;91.48;50170.78;5114420;28;20680;-70
2022/10/31 01:18:34;;;;;;;24.00;12.20;;;;;;;;;;5096125;28;20558;-70
2022/10/31 01:21:09;;;;;;;18.33;10.73;;;;;;;-142.65;92.32;50178.75;5114269;28;20181;-70
2022/10/31 01:23:36;;;;;;;12.80;11.53;;;;;;;-142.65;92.21;50168.78;5096114;28;20181;-70
2022/10/31 01:26:18;;;;;;;11.30;10.40;;;;;;;-142.65;92.13;50168.78;5114529;28;20181;-70
2022/10/31 01:28:51;;;;;;;21.60;11.20;;;;;;;-142.65;92.16;50178.75;5095928;28;20209;-70
2022/10/31 01:31:20;;;;;;;11.97;10.27;;;;;;;-142.65;92.35;50168.78;5114356;28;20205;-70
2022/10/31 01:33:47;;;;;;;10.23;9.23;;;;;;;-142.65;92.47;50182.72;5096383;28;20223;-70
2022/10/31 01:36:21;;;;;;;12.63;11.13;;;;;;;-142.65;92.63;50172.78;5114364;28;20200;-70
2022/10/31 01:38:50;;;;;;;13.60;12.00;;;;;;;-142.65;92.83;50170.78;5095847;28;20222;-70
2022/10/31 01:41:20;;;;;;;14.83;11.70;;;;;;;-142.65;92.41;50170.78;5114489;28;20219;-70
2022/10/31 01:44:02;;;;;;;13.30;11.93;;;;;;;-142.65;92.62;50176.75;5095709;28;20654;-70
2022/10/31 01:46:36;;;;;;;12.07;10.77;;;;;;;-142.65;92.78;50174.75;5095813;28;20185;-70
2022/10/31 01:49:17;;;;;;;18.83;12.10;;;;;;;-142.65;92.89;50176.75;5114444;28;20197;-70
2022/10/31 01:51:58;;;;;;;13.97;10.73;;;;;;;-142.65;92.96;50178.75;5095612;28;20314;-70
2022/10/31 01:54:30;;;;;;;14.50;11.63;;;;;;;-142.65;93.16;50174.75;5114183;28;20185;-70
2022/10/31 01:56:58;;;;;;;14.53;11.23;;;;;;;-142.65;93.28;50174.75;5095585;28;20196;-70
2022/10/31 01:59:30;;;;;;;15.80;10.60;;;;;;;-142.65;93.26;50172.78;5095534;28;20211;-70
2022/10/31 02:01:56;;;;;;;29.93;11.17;;;;;;;-142.65;93.48;50168.78;5114349;28;20215;-70
2022/10/31 02:04:23;;;;;;;18.20;10.50;;;;;;;;;;5113787;28;20181;-70
2022/10/31 02:07:03;;;;;;;14.73;10.43;;;;;;;-142.65;93.69;50170.78;5113755;28;20203;-70
2022/10/31 02:09:31;;;;;;;24.40;11.57;;;;;;;-142.65;93.99;50176.75;5114214;28;20193;-70
2022/10/31 02:12:01;;;;;;;12.60;11.30;;;;;;;-142.65;93.91;50170.78;5095394;28;20216;-70
2022/10/31 02:14:30;;;;;;;26.10;11.10;;;;;;;-142.65;93.85;50168.78;5095304;28;20208;-69
2022/10/31 02:16:57;;;;;;;25.53;12.10;;;;;;;-142.65;94.01;50172.78;5113611;28;20546;-69
2022/10/31 02:19:44;;;;;;;19.90;11.57;;;;;;;;;;5113887;28;20184;-69
2022/10/31 02:22:24;;;;;;;24.93;11.27;;;;;;;-142.65;94.46;50172.78;5095347;28;20208;-70
2022/10/31 02:25:09;;;;;;;15.03;11.23;;;;;;;-142.65;94.51;50168.78;5097714;28;20181;-70
2022/10/31 02:27:42;;;;;;;18.43;10.73;;;;;;;-142.65;94.04;50176.75;5099514;28;20212;-70
2022/10/31 02:30:19;;;;;;;17.93;12.57;;;;;;;-142.65;93.47;50176.75;5099401;28;20201;-70
2022/10/31 02:33:04;;;;;;;18.13;11.93;;;;;;;-142.65;92.81;50170.78;5099338;28;20318;-70
2022/10/31 02:35:47;;;;;;;11.57;10.33;;;;;;;-142.65;92.92;50176.75;5099313;28;20177;-70
2022/10/31 02:38:30;;;;;;;15.13;10.77;;;;;;;-142.65;93.08;50178.75;5117539;28;20186;-70
2022/10/31 02:41:06;;;;;;;12.93;10.73;;;;;;;-142.65;92.99;50174.75;5099438;28;20193;-70
2022/10/31 02:43:57;;;;;;;18.80;11.27;;;;;;;-142.65;93.29;50168.78;5117704;28;20169;-70
2022/10/31 02:46:42;;;;;;;21.80;12.47;;;;;;;-142.65;93.34;50170.78;5099688;28;20195;-70
2022/10/31 02:49:21;;;;;;;20.50;12.10;;;;;;;-142.65;93.58;50172.78;5099259;28;20246;-70
2022/10/31 02:51:48;;;;;;;15.00;11.80;;;;;;;;;;5117557;28;20599;-70
2022/10/31 02:54:21;;;;;;;12.33;10.23;;;;;;;-142.65;93.93;50168.78;5099787;28;20201;-70
2022/10/31 02:56:55;;;;;;;18.13;12.50;;;;;;;-142.65;94.19;50172.78;5098962;28;20189;-70
2022/10/31 02:59:23;;;;;;;13.13;11.30;;;;;;;-142.65;94.38;50176.75;5117173;28;20165;-70
2022/10/31 03:02:23;;;;;;;23.03;12.50;;;;;;;-142.65;94.51;50176.75;5098723;28;20759;-70
2022/10/31 03:04:58;;;;;;;13.90;12.27;;;;;;;-142.65;94.74;50170.78;5098741;28;20189;-70
2022/10/31 03:07:47;;;;;;;14.40;10.83;;;;;;;-142.65;94.71;50184.72;5098773;28;20306;-69
2022/10/31 03:10:24;;;;;;;13.23;11.83;;;;;;;-142.65;94.63;50170.78;5098617;28;20213;-69
2022/10/31 03:13:00;;;;;;;17.83;11.67;;;;;;;-142.65;94.63;50174.75;5098602;28;20212;-70
2022/10/31 03:15:32;;;;;;;10.30;9.70;;;;;;;-142.65;94.61;50170.78;5098614;28;20212;-70
2022/10/31 03:18:07;;;;;;;11.20;10.10;;;;;;;;;;5116778;28;20177;-69
2022/10/31 03:20:40;;;;;;;12.40;11.10;;;;;;;-142.65;94.91;50174.75;5116989;28;20641;-69
2022/10/31 03:23:13;;;;;;;13.43;10.47;;;;;;;-142.65;94.93;50170.78;5098368;28;20237;-69
2022/10/31 03:25:41;;;;;;;19.03;11.90;;;;;;;-142.65;94.98;50176.75;5116992;28;20178;-69
2022/10/31 03:28:11;;;;;;;13.63;11.40;;;;;;;-142.65;94.93;50172.78;5098296;28;20286;-69
2022/10/31 03:30:42;;;;;;;16.70;12.27;;;;;;;-142.65;95.25;50170.78;5098192;28;20235;-69
2022/10/31 03:33:14;;;;;;;20.37;12.10;;;;;;;-142.65;95.30;50178.75;5098170;28;20215;-70
2022/10/31 03:35:45;;;;;;;27.10;11.87;;;;;;;-142.65;95.48;50182.72;5097767;28;20196;-70
2022/10/31 03:38:14;;;;;;;12.63;10.93;;;;;;;-142.65;95.49;50178.75;5115161;28;20269;-70
2022/10/31 03:40:45;;;;;;;16.50;13.13;;;;;;;-142.65;95.54;50168.78;5098860;28;20193;-70
2022/10/31 03:43:18;;;;;;;17.20;12.83;;;;;;;-142.65;95.64;50170.78;5098004;28;20230;-69
2022/10/31 03:45:46;;;;;;;14.90;11.60;;;;;;;-142.65;95.68;50170.78;5116798;28;20181;-69
2022/10/31 03:48:14;;;;;;;12.73;11.30;;;;;;;;;;5097940;28;20291;-69
2022/10/31 03:51:01;;;;;;;14.97;11.23;;;;;;;-142.65;95.73;50176.75;5097841;28;20209;-69
2022/10/31 03:53:45;;;;;;;11.37;10.30;;;;;;;-142.65;95.89;50168.78;5116134;28;20180;-69
2022/10/31 03:56:22;;;;;;;11.57;9.80;;;;;;;;;;5098293;28;20666;-69
2022/10/31 03:59:00;;;;;;;14.73;11.33;;;;;;;-142.65;95.82;50170.78;5097812;28;20212;-69
2022/10/31 04:01:31;;;;;;;16.00;11.50;;;;;;;-142.65;95.81;50172.78;5097616;28;20213;-70
2022/10/31 04:03:59;;;;;;;21.60;12.03;;;;;;;-142.65;95.87;50178.75;5097578;28;20216;-70
2022/10/31 04:06:27;;;;;;;18.13;11.10;;;;;;;-142.65;95.94;50172.78;5097559;28;20193;-70
2022/10/31 04:09:03;;;;;;;16.20;11.23;;;;;;;-142.65;95.76;50176.75;5097549;28;20198;-70
2022/10/31 04:11:35;;;;;;;13.30;12.00;;;;;;;-142.65;95.73;50170.78;5097543;28;20243;-70
2022/10/31 04:14:25;;;;;;;24.73;10.73;;;;;;;-142.65;95.71;50174.75;5114847;28;20210;-70
2022/10/31 04:16:51;;;;;;;13.03;10.10;;;;;;;-142.65;95.84;50182.72;5097357;28;20271;-70
2022/10/31 04:19:23;;;;;;;11.40;10.43;;;;;;;-142.65;95.89;50170.78;5097618;28;20185;-69
2022/10/31 04:21:50;;;;;;;14.43;11.73;;;;;;;-142.65;95.62;50182.72;5097284;28;20213;-69
2022/10/31 04:24:16;;;;;;;15.13;11.87;;;;;;;-142.65;95.56;50170.78;5098127;28;20189;-69
2022/10/31 04:26:43;;;;;;;16.87;12.37;;;;;;;-142.65;95.54;50178.75;5097197;28;20651;-69
2022/10/31 04:29:09;;;;;;;12.63;11.53;;;;;;;-142.65;95.57;50178.75;5097069;28;20195;-69
2022/10/31 04:31:37;;;;;;;17.77;12.07;;;;;;;-142.65;95.60;50176.75;5096995;28;20247;-70
2022/10/31 04:34:03;;;;;;;16.53;12.47;;;;;;;-142.65;95.56;50172.78;5115285;28;20195;-70
2022/10/31 04:36:30;;;;;;;16.20;11.13;;;;;;;-142.65;95.65;50168.78;5097021;28;20265;-69
2022/10/31 04:38:56;;;;;;;12.07;10.97;;;;;;;-142.65;95.68;50168.78;5096903;28;20284;-69
2022/10/31 04:41:39;;;;;;;19.20;11.20;;;;;;;-142.65;95.71;50170.78;5097938;28;20216;-70
2022/10/31 04:44:13;;;;;;;14.90;11.90;;;;;;;-142.65;95.84;50178.75;5115691;28;20170;-69
2022/10/31 04:46:39;;;;;;;17.20;11.47;;;;;;;-142.65;95.86;50174.75;5113083;28;20196;-69
2022/10/31 04:49:07;;;;;;;15.77;12.13;;;;;;;-142.65;95.81;50176.75;5097416;28;20561;-69
2022/10/31 04:51:34;;;;;;;17.63;12.07;;;;;;;-142.65;95.75;50172.78;5096635;28;20209;-69
2022/10/31 04:54:00;;;;;;;12.50;11.40;;;;;;;-142.65;95.81;50180.75;5096649;28;20740;-69
2022/10/31 04:56:27;;;;;;;14.43;10.97;;;;;;;-142.65;95.96;50178.75;5114841;28;20557;-69
2022/10/31 04:59:04;;;;;;;28.57;10.60;;;;;;;-142.65;96.07;50172.78;5096586;28;20624;-69
2022/10/31 05:01:42;;;;;;;16.33;12.63;;;;;;;-142.65;96.24;50172.78;5097086;28;20245;-69
2022/10/31 05:04:10;;;;;;;12.63;10.57;;;;;;;-142.65;96.21;50180.75;5096705;28;20677;-69
2022/10/31 05:06:36;;;;;;;16.07;12.27;;;;;;;-142.65;96.33;50168.78;5115201;28;20181;-69
2022/10/31 05:09:02;;;;;;;16.37;11.30;;;;;;;-142.65;96.39;50172.78;5115123;28;20190;-69
2022/10/31 05:11:29;;;;;;;21.20;13.43;;;;;;;-142.65;96.42;50174.75;5096154;28;20217;-70
2022/10/31 05:14:05;;;;;;;13.70;12.13;;;;;;;-142.65;96.48;50172.78;5096560;28;20225;-69
2022/10/31 05:16:52;;;;;;;13.93;11.03;;;;;;;-142.65;96.47;50182.72;5072978;28;20204;-69
2022/10/31 05:19:37;;;;;;;15.37;11.50;;;;;;;-142.65;96.16;50178.75;5115227;28;20188;-69
2022/10/31 05:22:21;;;;;;;12.87;10.40;;;;;;;;;;5114805;28;20224;-69
2022/10/31 05:24:48;;;;;;;13.77;10.70;;;;;;;-142.65;96.20;50168.78;5114313;28;20210;-69
2022/10/31 05:27:14;;;;;;;19.47;11.67;;;;;;;-142.65;96.23;50174.75;5096042;28;20189;-69
2022/10/31 05:29:41;;;;;;;17.20;12.57;;;;;;;-142.65;96.32;50182.72;5096970;28;20212;-69
2022/10/31 05:32:07;;;;;;;13.07;11.70;;;;;;;-142.65;96.44;50182.72;5095942;28;20222;-70
2022/10/31 05:34:52;;;;;;;12.70;11.27;;;;;;;-142.65;96.38;50170.78;5114469;28;20180;-70
2022/10/31 05:37:42;;;;;;;13.60;11.43;;;;;;;-142.65;96.54;50174.75;5096136;28;20197;-70
2022/10/31 05:40:10;;;;;;;17.70;11.00;;;;;;;-142.65;96.53;50174.75;5096921;28;20189;-69
2022/10/31 05:42:40;;;;;;;13.13;11.73;;;;;;;-142.65;96.41;50172.78;5095691;28;20220;-69
2022/10/31 05:45:09;;;;;;;16.33;12.10;;;;;;;-142.65;96.67;50172.78;5095830;28;20209;-69
2022/10/31 05:47:59;;;;;;;13.37;12.03;;;;;;;-142.65;96.64;50174.75;5096635;28;20184;-69
2022/10/31 05:50:55;;;;;;;21.30;12.47;;;;;;;-142.65;96.81;50170.78;5113581;28;20297;-69
2022/10/31 05:53:23;;;;;;;13.70;12.30;;;;;;;-142.65;96.88;50174.75;5095667;28;20201;-69
2022/10/31 05:55:49;;;;;;;14.30;10.87;;;;;;;-142.65;97.00;50174.75;5095820;28;20736;-69
2022/10/31 05:58:18;;;;;;;17.80;12.10;;;;;;;-142.65;97.08;50176.75;5095432;28;20193;-69
2022/10/31 06:00:52;;;;;;;16.33;11.20;;;;;;;-142.65;97.19;50174.75;5096289;28;20212;-70
2022/10/31 06:03:19;;;;;;;13.67;11.60;;;;;;;-142.65;97.28;50170.78;5095520;28;20216;-69
2022/10/31 06:05:56;;;;;;;12.13;10.97;;;;;;;-142.65;97.37;50182.72;5096087;28;20205;-69
2022/10/31 06:08:26;;;;;;;15.53;12.33;;;;;;;-142.65;97.49;50168.78;5095750;28;20715;-69
2022/10/31 06:10:54;;;;;;;16.20;12.30;;;;;;;-142.65;97.55;50176.75;5095560;28;20213;-70
2022/10/31 06:13:40;;;;;;;17.07;12.00;;;;;;;-142.65;97.64;50170.78;5113613;28;20219;-69
2022/10/31 06:16:15;;;;;;;18.07;13.33;;;;;;;-142.65;97.59;50174.75;5095957;28;20654;-69
2022/10/31 06:18:42;;;;;;;16.33;12.73;;;;;;;;;;5095619;28;20222;-69
2022/10/31 06:21:10;;;;;;;15.07;11.87;;;;;;;-142.65;97.71;50170.78;5095545;28;20751;-70
2022/10/31 06:23:40;;;;;;;15.10;11.57;;;;;;;-142.65;97.69;50174.75;5095331;28;20189;-69
2022/10/31 06:26:25;;;;;;;13.50;11.07;;;;;;;-142.65;97.73;50174.75;5114397;28;20335;-69
2022/10/31 06:28:52;;;;;;;17.17;11.53;;;;;;;-142.65;97.63;50178.75;5095443;28;20608;-69
2022/10/31 06:31:40;;;;;;;17.50;12.87;;;;;;;-142.65;97.69;50182.72;5113640;28;20576;-69
2022/10/31 06:34:06;;;;;;;30.57;12.00;;;;;;;;;;5095241;28;20190;-69
2022/10/31 06:36:33;;;;;;;24.37;13.03;;;;;;;-142.65;97.73;50178.75;5113861;28;20583;-69
2022/10/31 06:39:00;;;;;;;41.77;15.03;;;;;;;-142.65;97.90;50174.75;5113357;28;20562;-69
2022/10/31 06:41:26;;;;;;;26.60;15.40;;;;;;;-142.65;97.97;50180.75;5095032;28;20544;-69
2022/10/31 06:43:53;;;;;;;23.00;14.43;;;;;;;-142.65;98.02;50168.78;5095371;28;20243;-69
2022/10/31 06:46:51;;;;;;;24.80;14.83;;;;;;;-142.65;98.22;50174.75;5057713;28;20298;-69
2022/10/31 06:49:36;;;;;;;20.37;14.13;;;;;;;;;;5113687;28;20180;-69
2022/10/31 06:52:09;;;;;;;26.53;13.77;;;;;;;-142.65;98.49;50170.78;5086749;28;20237;-69
2022/10/31 06:54:35;;;;;;;27.10;13.73;;;;;;;-142.65;98.56;50172.78;5094674;28;20196;-70
2022/10/31 06:57:02;;;;;;;18.07;13.07;;;;;;;;;;5113503;28;20204;-69
2022/10/31 06:59:29;;;;;;;23.73;16.30;;;;;;;-142.65;98.63;50170.78;5113504;28;20268;-69
2022/10/31 07:02:04;;;;;;;23.33;14.50;;;;;;;-142.65;98.80;50174.75;5111917;28;20204;-70
2022/10/31 07:04:32;;;;;;;22.27;13.90;;;;;;;-142.65;98.89;50178.75;5094156;28;20204;-69
2022/10/31 07:06:58;;;;;;;21.80;14.80;;;;;;;-142.65;98.94;50176.75;5094965;28;20220;-69
2022/10/31 07:09:25;;;;;;;27.13;15.57;;;;;;;;;;5113294;28;20238;-69
2022/10/31 07:11:52;;;;;;;23.67;12.87;;;;;;;-142.65;98.84;50170.78;5097990;28;20242;-70
2022/10/31 07:14:19;;;;;;;18.47;12.77;;;;;;;-142.65;98.94;50174.75;5098743;28;20287;-69
2022/10/31 07:16:53;;;;;;;23.57;12.47;;;;;;;-142.65;98.86;50172.78;5098771;28;20208;-69
2022/10/31 07:19:25;;;;;;;22.07;13.50;;;;;;;;;;5098445;28;20196;-69
2022/10/31 07:21:51;;;;;;;17.83;13.13;;;;;;;-142.65;98.87;50170.78;5098313;28;20213;-70
2022/10/31 07:24:18;;;;;;;26.27;13.97;;;;;;;-142.65;98.79;50174.75;5098324;28;20208;-70
2022/10/31 07:27:06;;;;;;;22.50;14.53;;;;;;;-142.65;98.77;50168.78;5116317;28;20232;-70
2022/10/31 07:29:33;;;;;;;25.23;13.80;;;;;;;-142.65;98.85;50174.75;5098293;28;20288;-70
2022/10/31 07:32:00;;;;;;;31.57;13.73;;;;;;;-142.65;98.83;50170.78;5098998;28;20225;-70
2022/10/31 07:34:28;;;;;;;25.30;14.87;;;;;;;;;;5099078;28;20258;-70
2022/10/31 07:37:12;;;;;;;22.90;14.87;;;;;;;-142.65;99.00;50176.75;5098456;28;20284;-70
2022/10/31 07:39:39;;;;;;;15.97;13.13;;;;;;;;;;5098062;28;20200;-70
2022/10/31 07:42:06;;;;;;;24.20;15.00;;;;;;;-142.65;98.89;50170.78;5098737;28;20269;-70
2022/10/31 07:44:33;;;;;;;26.53;16.17;;;;;;;-142.65;99.15;50172.78;5098867;28;20223;-70
2022/10/31 07:47:18;;;;;;;23.57;14.43;;;;;;;-142.65;98.99;50184.72;5117041;28;20176;-70
2022/10/31 07:50:03;;;;;;;35.97;15.93;;;;;;;-142.65;98.93;50176.75;5116889;28;20181;-70
2022/10/31 07:53:06;;;;;;;20.53;14.80;;;;;;;-142.65;98.93;50172.78;5116319;28;20338;-70
2022/10/31 07:55:53;;;;;;;31.17;16.20;;;;;;;-142.65;99.09;50178.75;5097803;28;20212;-70
2022/10/31 07:58:24;;;;;;;30.07;15.87;;;;;;;-142.65;99.17;50174.75;5098030;28;20188;-70
2022/10/31 08:00:51;;;;;;;40.87;17.17;;;;;;;;;;5116132;28;20182;-70
2022/10/31 08:03:28;;;;;;;28.50;17.20;;;;;;;-142.65;99.10;50176.75;5098293;28;20263;-70
2022/10/31 08:06:26;;;;;;;24.53;14.83;;;;;;;-142.65;98.86;50170.78;5059771;28;20692;-69
2022/10/31 08:09:23;;;;;;;32.63;16.80;;;;;;;-142.65;99.04;50174.75;5097778;28;20197;-69
2022/10/31 08:11:53;;;;;;;22.07;15.67;;;;;;;-142.65;98.98;50176.75;5097785;28;20217;-70
2022/10/31 08:14:19;;;;;;;25.13;15.60;;;;;;;-142.65;98.95;50164.81;5115770;28;20681;-70
2022/10/31 08:16:46;;;;;;;23.30;15.20;;;;;;;-142.65;98.88;50170.78;5097331;28;20219;-70
2022/10/31 08:19:12;;;;;;;29.90;15.77;;;;;;;-142.65;98.81;50172.78;5097227;28;20191;-70
2022/10/31 08:21:39;;;;;;;20.23;15.30;;;;;;;-142.65;98.81;50176.75;5096081;28;20235;-70
2022/10/31 08:24:07;;;;;;;26.63;15.83;;;;;;;-142.65;98.76;50170.78;5097097;28;20669;-70
2022/10/31 08:26:33;;;;;;;24.67;16.23;;;;;;;-142.65;98.85;50168.78;5097184;28;20224;-70
2022/10/31 08:29:01;;;;;;;27.27;15.60;;;;;;;-142.65;98.49;50178.75;5097444;28;20195;-70
2022/10/31 08:31:31;;;;;;;32.93;17.80;;;;;;;-142.65;98.42;50170.78;5097839;28;20221;-70
2022/10/31 08:34:20;;;;;;;24.87;17.07;;;;;;;-142.65;98.27;50170.78;5115871;28;20173;-70
2022/10/31 08:37:05;;;;;;;21.10;16.03;;;;;;;;;;5115808;28;20230;-70
2022/10/31 08:39:39;;;;;;;33.23;17.00;;;;;;;-142.65;97.68;50180.75;5097138;28;20195;-70
2022/10/31 08:42:05;;;;;;;35.87;17.90;;;;;;;-142.65;97.42;50174.75;5097095;28;20219;-70
2022/10/31 08:44:32;;;;;;;38.37;17.00;;;;;;;-142.65;97.21;50176.75;5096820;28;20213;-70
2022/10/31 08:46:58;;;;;;;36.77;17.73;;;;;;;-142.65;96.91;50170.78;5115614;28;20245;-69
2022/10/31 08:49:25;;;;;;;27.97;17.20;;;;;;;-142.65;96.68;50174.75;5096790;28;20606;-69
2022/10/31 08:51:51;;;;;;;35.30;17.00;;;;;;;-142.65;96.34;50168.78;5096563;28;20216;-70
2022/10/31 08:54:20;;;;;;;32.07;16.40;;;;;;;-142.65;96.00;50174.75;5096938;28;20197;-70
2022/10/31 08:56:56;;;;;;;45.00;17.03;;;;;;;;;;5115370;28;20173;-69
2022/10/31 08:59:32;;;;;;;44.80;17.20;;;;;;;;;;5096822;28;20189;-69
2022/10/31 09:02:17;;;;;;;26.50;16.13;;;;;;;;;;5096547;28;20235;-70
2022/10/31 09:04:44;;;;;;;24.23;18.47;;;;;;;-142.65;94.34;50174.75;5093777;28;20200;-70
2022/10/31 09:07:11;;;;;;;36.23;18.80;;;;;;;-142.65;94.36;50176.75;5094997;28;20193;-70
2022/10/31 09:09:53;;;;;;;31.47;16.30;;;;;;;-142.65;93.96;50170.78;5095394;28;20540;-69
2022/10/31 09:12:19;;;;;;;26.43;16.73;;;;;;;;;;5094455;28;20562;-70
2022/10/31 09:15:06;;;;;;;28.77;17.20;;;;;;;-142.65;92.82;50180.75;5114773;28;20218;-70
2022/10/31 09:17:48;;;;;;;35.93;17.40;;;;;;;-142.65;92.30;50174.75;5093720;28;20201;-70
2022/10/31 09:20:40;;;;;;;35.80;17.30;;;;;;;-142.65;91.60;50172.78;5100713;28;20204;-70
2022/10/31 09:23:11;;;;;;;33.50;17.03;;;;;;;-142.65;91.22;50170.78;5096058;28;20213;-69
2022/10/31 09:25:39;;;;;;;29.17;16.90;;;;;;;-142.65;91.08;50170.78;5096101;28;20272;-69
2022/10/31 09:28:24;;;;;;;26.87;15.87;;;;;;;-142.65;91.29;50170.78;5114401;28;20545;-70
2022/10/31 09:30:53;;;;;;;32.37;16.87;;;;;;;-142.65;91.05;50164.81;5094503;28;20215;-70
2022/10/31 09:33:54;;;;;;;39.47;15.93;;;;;;;;;;5099562;28;20269;-70
2022/10/31 09:36:45;;;;;;;34.73;16.67;;;;;;;-142.65;89.95;50170.78;5093767;28;20559;-69
2022/10/31 09:39:23;;;;;;;23.33;14.90;;;;;;;-142.65;89.98;50164.81;5086244;28;20189;-70
2022/10/31 09:42:13;;;;;;;33.60;16.37;;;;;;;-142.65;89.49;50174.75;5096390;28;20204;-70
2022/10/31 09:44:55;;;;;;;29.33;15.50;;;;;;;-142.65;89.01;50170.78;5095824;28;20276;-69
2022/10/31 09:47:43;;;;;;;40.33;16.27;;;;;;;-142.65;88.33;50172.78;5096210;28;20189;-69
2022/10/31 09:51:10;;;;;;;26.70;16.67;;;;;;;-142.65;88.39;50170.78;5111138;28;20288;-70
2022/10/31 09:53:50;;;;;;;30.17;16.00;;;;;;;-142.65;87.94;50172.78;5069361;28;20199;-70
2022/10/31 09:56:20;;;;;;;27.67;16.33;;;;;;;;;;5095576;28;20715;-70
2022/10/31 09:58:53;;;;;;;38.50;17.93;;;;;;;-142.65;87.75;50164.81;5095497;28;20180;-69
2022/10/31 10:01:29;;;;;;;28.90;14.37;;;;;;;-142.65;88.27;50174.75;5094460;28;20209;-69
2022/10/31 10:04:02;;;;;;;28.13;16.23;;;;;;;-142.65;88.14;50180.75;5095812;28;20566;-69
2022/10/31 10:06:57;;;;;;;35.63;16.50;;;;;;;-142.65;88.14;50164.81;5095725;28;20288;-69
2022/10/31 10:09:41;;;;;;;24.80;15.17;;;;;;;-142.65;87.93;50174.75;5113158;28;20639;-69
2022/10/31 10:13:05;;;;;;;40.73;17.60;;;;;;;-142.65;87.98;50170.78;5113482;28;20733;-69
2022/10/31 10:15:55;;;;;;;34.27;17.03;;;;;;;-142.65;87.96;50170.78;5093862;28;20258;-69
2022/10/31 10:18:30;;;;;;;39.80;16.70;;;;;;;-142.65;87.63;50172.78;5093874;28;20217;-69
2022/10/31 10:21:15;;;;;;;35.73;18.07;;;;;;;-142.65;87.58;50174.75;5093607;28;20185;-70
2022/10/31 10:23:53;;;;;;;37.67;18.23;;;;;;;-142.65;87.64;50176.75;5100503;28;20262;-69
2022/10/31 10:26:22;;;;;;;31.47;16.50;;;;;;;-142.65;87.26;50170.78;5113530;28;20184;-69
2022/10/31 10:29:00;;;;;;;39.77;18.17;;;;;;;-142.65;86.67;50170.78;5113507;28;20215;-69
2022/10/31 10:31:36;;;;;;;33.50;17.03;;;;;;;;;;5113317;28;20213;-69
2022/10/31 10:34:29;;;;;;;39.87;17.30;;;;;;;-142.65;84.95;50178.75;5112873;28;20185;-69
2022/10/31 10:37:01;;;;;;;40.67;17.43;;;;;;;-142.65;83.55;50162.81;5114020;28;20181;-69
2022/10/31 10:39:36;;;;;;;26.10;15.87;;;;;;;-142.65;83.09;50170.78;5113689;28;20170;-69
2022/10/31 10:47:46;;;;;;;25.50;15.07;;;;;;;-142.65;83.00;50170.78;5117672;28;20177;-69
2022/10/31 10:50:19;;;;;;;26.53;16.73;;;;;;;-142.65;83.08;50174.75;5117658;28;20178;-69
2022/10/31 10:52:52;;;;;;;29.27;16.77;;;;;;;;;;5117439;28;20224;-69
2022/10/31 10:55:36;;;;;;;41.77;17.10;;;;;;;-142.65;82.26;50170.78;5116363;28;20199;-69
2022/10/31 10:58:10;;;;;;;38.07;14.87;;;;;;;-142.65;82.13;50170.78;5117515;28;20178;-69
2022/10/31 11:00:49;;;;;;;33.87;16.03;;;;;;;-142.65;82.71;50170.78;5117109;28;20195;-69
2022/10/31 11:03:17;;;;;;;29.33;14.97;;;;;;;-142.65;82.73;50170.78;5115218;28;20173;-70
2022/10/31 11:06:01;;;;;;;36.67;16.50;;;;;;;-142.65;82.45;50164.81;5117278;28;20180;-69
2022/10/31 11:08:28;;;;;;;26.37;16.00;;;;;;;;;;5117522;28;20169;-69
2022/10/31 11:11:03;;;;;;;27.10;15.27;;;;;;;-142.65;82.51;50170.78;5117191;28;20547;-69
2022/10/31 11:13:31;;;;;;;32.07;15.60;;;;;;;-142.65;82.02;50164.81;5116455;28;20204;-69
2022/10/31 11:16:07;;;;;;;31.83;16.17;;;;;;;;;;5116232;28;20189;-69
2022/10/31 11:18:37;;;;;;;27.77;14.73;;;;;;;-142.65;82.05;50174.75;5117058;28;20614;-69
2022/10/31 11:21:04;;;;;;;25.90;15.73;;;;;;;;;;5116836;28;20224;-69
2022/10/31 11:23:32;;;;;;;22.20;13.20;;;;;;;-142.65;81.94;50168.78;5114957;28;20663;-69
2022/10/31 11:25:59;;;;;;;33.33;14.83;;;;;;;;;;5116920;28;20208;-69
2022/10/31 11:28:26;;;;;;;24.37;14.60;;;;;;;;;;5113036;28;20323;-70
2022/10/31 11:30:59;;;;;;;28.03;14.40;;;;;;;-142.65;81.77;50170.78;5112144;28;20694;-70
2022/10/31 11:33:32;;;;;;;25.97;14.70;;;;;;;;;;5112200;28;20185;-69
2022/10/31 11:36:02;;;;;;;21.87;14.37;;;;;;;-142.65;81.45;50170.78;5116667;28;20515;-69
2022/10/31 11:38:34;;;;;;;26.13;15.33;;;;;;;;;;5112608;28;20230;-69
2022/10/31 11:41:15;;;;;;;33.90;15.03;;;;;;;-142.65;81.34;50170.78;5115279;28;20561;-69
2022/10/31 11:43:47;;;;;;;21.10;13.37;;;;;;;;;;5112129;28;20193;-69
2022/10/31 11:46:21;;;;;;;29.33;14.67;;;;;;;-142.65;80.58;50164.81;5116705;28;20196;-69
2022/10/31 11:48:51;;;;;;;26.87;14.50;;;;;;;-142.65;80.25;50168.78;5116505;28;20253;-69
2022/10/31 11:51:24;;;;;;;26.37;14.10;;;;;;;;;;5115131;28;20213;-70
2022/10/31 11:53:54;;;;;;;28.83;15.43;;;;;;;-142.65;79.73;50168.78;5112029;28;20192;-69
2022/10/31 11:56:37;;;;;;;25.73;14.20;;;;;;;;;;5116293;28;20173;-69
2022/10/31 11:59:14;;;;;;;30.80;14.30;;;;;;;-142.65;79.30;50162.81;5116672;28;20177;-69